Time;durP1;ratioP1;P1;durP2;ratioP2;P2;SDS_P1;SDS_P2;PMS_P1;PMS_P2;Temp;Humidity;BMP_temperature;BMP_pressure;BME280_temperature;BME280_humidity;BME280_pressure;Samples;Min_cycle;Max_cycle;Signal;HPM_P1;HPM_P2
2022/07/16 00:01:24;;;;;;;7.75;3.65;;;;;;;26.44;54.70;98289.19;5001391;28;20053;-58
2022/07/16 00:03:53;;;;;;;6.43;3.63;;;;;;;26.10;54.85;98240.69;5017542;28;20112;-60
2022/07/16 00:06:19;;;;;;;6.32;3.58;;;;;;;26.38;55.13;98287.56;5023758;28;20296;-59
2022/07/16 00:08:45;;;;;;;6.38;3.55;;;;;;;26.43;55.09;98302.75;5020117;28;20471;-59
2022/07/16 00:11:10;;;;;;;6.75;3.75;;;;;;;26.37;55.58;98306.47;4996905;28;20033;-61
2022/07/16 00:13:35;;;;;;;6.85;3.63;;;;;;;26.32;55.18;98299.22;5020280;28;20481;-60
2022/07/16 00:16:01;;;;;;;7.20;4.00;;;;;;;26.35;55.21;98297.91;5016992;28;20060;-60
2022/07/16 00:21:10;;;;;;;6.68;3.58;;;;;;;26.44;54.77;98315.03;5018557;28;20075;-60
2022/07/16 00:23:36;;;;;;;6.88;3.88;;;;;;;26.44;54.17;98317.72;5026751;28;20244;-60
2022/07/16 00:26:01;;;;;;;6.90;3.75;;;;;;;26.34;54.92;98315.78;5002575;28;20021;-60
2022/07/16 00:28:27;;;;;;;9.02;4.07;;;;;;;26.34;53.94;98314.97;5012525;28;20045;-59
2022/07/16 00:30:52;;;;;;;6.88;3.55;;;;;;;26.36;54.07;98323.50;5004914;28;20435;-59
2022/07/16 00:33:18;;;;;;;5.93;3.50;;;;;;;26.18;54.61;98319.38;5027455;28;20112;-60
2022/07/16 00:35:43;;;;;;;8.52;3.75;;;;;;;26.03;54.06;98290.72;5018068;28;20519;-59
2022/07/16 00:38:08;;;;;;;6.72;4.00;;;;;;;26.14;54.31;98324.41;5004357;28;20048;-61
2022/07/16 00:40:34;;;;;;;8.32;4.35;;;;;;;26.15;54.30;98327.88;5020371;28;20029;-59
2022/07/16 00:43:01;;;;;;;8.02;4.00;;;;;;;26.18;53.72;98322.03;5029249;28;20052;-61
2022/07/16 00:45:26;;;;;;;5.95;3.55;;;;;;;26.35;53.27;98329.91;5024325;28;20025;-62
2022/07/16 00:47:52;;;;;;;8.57;4.15;;;;;;;26.12;53.65;98337.19;5014872;28;20032;-61
2022/07/16 00:50:17;;;;;;;6.45;4.05;;;;;;;26.10;53.65;98341.94;5001526;28;20080;-59
2022/07/16 00:52:42;;;;;;;7.72;3.90;;;;;;;25.99;54.00;98345.56;5006118;28;20028;-60
2022/07/16 00:55:08;;;;;;;6.10;3.90;;;;;;;25.74;54.28;98311.44;5006566;28;20439;-60
2022/07/16 00:57:33;;;;;;;8.13;4.10;;;;;;;25.88;53.88;98336.63;5035879;28;20120;-61
2022/07/16 00:59:59;;;;;;;5.85;3.72;;;;;;;25.84;54.32;98336.31;5024327;28;20112;-60
2022/07/16 01:02:24;;;;;;;7.68;4.13;;;;;;;25.79;55.34;98335.47;5021256;28;20018;-59
2022/07/16 01:04:50;;;;;;;8.50;4.50;;;;;;;25.76;55.30;98338.66;5022320;28;20468;-60
2022/07/16 01:07:16;;;;;;;7.82;4.00;;;;;;;25.84;54.50;98338.19;5023467;28;20456;-60
2022/07/16 01:09:42;;;;;;;7.95;4.13;;;;;;;25.94;54.58;98341.00;5026902;28;20128;-60
2022/07/16 01:12:07;;;;;;;8.40;3.70;;;;;;;25.97;54.47;98337.03;5023878;28;20135;-61
2022/07/16 01:14:33;;;;;;;5.75;3.85;;;;;;;25.65;53.41;98276.50;5021970;28;20026;-60
2022/07/16 01:16:58;;;;;;;8.18;3.75;;;;;;;25.99;53.07;98337.56;5017052;28;20021;-60
2022/07/16 01:19:23;;;;;;;7.32;3.80;;;;;;;26.02;52.15;98337.88;5038272;28;20028;-60
2022/07/16 01:21:49;;;;;;;6.95;3.60;;;;;;;25.81;52.48;98339.50;5027860;28;20033;-60
2022/07/16 01:24:15;;;;;;;5.55;3.60;;;;;;;25.73;52.25;98344.47;5018928;28;20022;-60
2022/07/16 01:26:40;;;;;;;5.75;3.65;;;;;;;25.61;52.59;98320.63;5020255;28;20074;-60
2022/07/16 01:29:06;;;;;;;5.72;3.70;;;;;;;25.60;52.09;98311.06;5007018;28;20041;-60
2022/07/16 01:31:31;;;;;;;6.68;3.70;;;;;;;25.61;51.77;98316.13;5021262;28;20032;-60
2022/07/16 01:36:40;;;;;;;7.50;4.03;;;;;;;25.85;53.29;98347.81;5019952;28;20431;-60
2022/07/16 01:39:06;;;;;;;6.63;3.42;;;;;;;25.67;53.52;98309.00;5019447;28;20033;-60
2022/07/16 01:41:31;;;;;;;5.75;3.65;;;;;;;25.77;53.63;98349.03;5020250;28;20060;-60
2022/07/16 01:43:57;;;;;;;6.97;3.90;;;;;;;25.64;54.21;98347.56;5013769;28;20460;-61
2022/07/16 01:46:22;;;;;;;7.50;3.80;;;;;;;25.67;54.01;98339.09;5037165;28;20029;-60
2022/07/16 01:48:48;;;;;;;5.78;3.70;;;;;;;25.74;53.74;98344.22;5017994;28;20022;-60
2022/07/16 01:51:13;;;;;;;5.90;3.42;;;;;;;25.63;54.57;98318.56;5023193;28;20022;-60
2022/07/16 01:53:38;;;;;;;6.60;3.80;;;;;;;25.74;54.50;98351.38;5020355;28;20040;-61
2022/07/16 01:56:04;;;;;;;6.72;3.60;;;;;;;25.59;54.10;98322.75;5003394;28;20095;-59
2022/07/16 01:58:29;;;;;;;5.55;3.25;;;;;;;25.70;54.36;98343.09;5054497;28;20128;-60
2022/07/16 02:00:55;;;;;;;6.05;3.35;;;;;;;25.75;54.11;98355.69;5016755;28;20381;-59
2022/07/16 02:03:21;;;;;;;6.90;3.70;;;;;;;25.72;54.29;98349.00;5016954;28;20043;-60
2022/07/16 02:05:47;;;;;;;6.30;3.70;;;;;;;25.65;54.77;98359.03;5018883;28;20026;-61
2022/07/16 02:08:12;;;;;;;6.43;3.67;;;;;;;25.59;54.78;98354.69;5020161;28;20036;-60
2022/07/16 02:10:38;;;;;;;6.93;3.90;;;;;;;25.58;55.01;98358.41;4980955;28;1120089;-62
2022/07/16 02:13:04;;;;;;;6.65;3.42;;;;;;;25.56;55.29;98357.88;5056006;28;20271;-59
2022/07/16 02:15:30;;;;;;;7.53;3.58;;;;;;;25.48;55.42;98351.94;5014415;28;20021;-61
2022/07/16 02:17:55;;;;;;;7.65;3.80;;;;;;;25.46;55.61;98355.88;5019041;28;20030;-59
2022/07/16 02:20:21;;;;;;;6.25;3.50;;;;;;;25.43;55.35;98362.50;5018316;28;20713;-59
2022/07/16 02:22:46;;;;;;;6.20;3.30;;;;;;;25.31;55.39;98319.25;5004653;28;20044;-61
2022/07/16 02:25:12;;;;;;;8.57;3.90;;;;;;;25.22;55.43;98324.16;5021900;28;20029;-60
2022/07/16 02:28:05;;;;;;;6.53;3.67;;;;;;;25.40;56.10;98355.00;5003986;28;20021;-59
2022/07/16 02:30:23;;;;;;;6.30;3.50;;;;;;;25.35;56.11;98364.78;5021783;28;20095;-60
2022/07/16 02:32:48;;;;;;;7.57;3.70;;;;;;;25.35;56.69;98354.94;5019017;28;20058;-60
2022/07/16 02:35:14;;;;;;;5.70;3.88;;;;;;;25.30;56.65;98366.34;5018452;28;20552;-60
2022/07/16 02:37:39;;;;;;;8.80;4.57;;;;;;;25.23;55.87;98367.53;5024269;28;20025;-60
2022/07/16 02:40:06;;;;;;;7.88;3.80;;;;;;;24.95;56.61;98324.06;5013855;28;20464;-59
2022/07/16 02:42:32;;;;;;;5.45;3.70;;;;;;;24.98;57.37;98339.53;5023882;28;20448;-60
2022/07/16 02:44:57;;;;;;;5.30;3.70;;;;;;;25.18;56.92;98375.44;5024023;28;20048;-60
2022/07/16 02:47:22;;;;;;;5.68;3.85;;;;;;;25.20;56.95;98366.16;5022565;28;20033;-60
2022/07/16 02:49:48;;;;;;;5.32;3.60;;;;;;;25.19;57.47;98371.72;5008602;28;20127;-60
2022/07/16 02:52:13;;;;;;;5.30;3.70;;;;;;;25.04;57.98;98348.38;5016293;28;20075;-60
2022/07/16 02:54:38;;;;;;;6.80;4.28;;;;;;;25.17;58.44;98377.28;5028299;28;20483;-60
2022/07/16 02:57:04;;;;;;;8.05;4.00;;;;;;;25.17;59.26;98374.63;5019864;28;20029;-59
2022/07/16 02:59:29;;;;;;;6.75;4.30;;;;;;;25.07;59.94;98375.28;5022323;28;20104;-60
2022/07/16 03:01:55;;;;;;;5.80;3.53;;;;;;;24.94;60.04;98341.88;5015360;28;20028;-60
2022/07/16 03:04:20;;;;;;;7.32;3.85;;;;;;;25.07;60.86;98377.97;5003313;28;20029;-60
2022/07/16 03:06:45;;;;;;;6.25;3.90;;;;;;;24.92;61.75;98375.88;5022016;28;20025;-59
2022/07/16 03:09:11;;;;;;;7.05;3.78;;;;;;;24.90;62.32;98380.66;5020285;28;20033;-59
2022/07/16 03:11:36;;;;;;;5.53;3.53;;;;;;;24.98;62.25;98374.09;5004807;28;20045;-59
2022/07/16 03:14:02;;;;;;;6.00;3.53;;;;;;;24.86;62.94;98346.78;5036572;28;20022;-60
2022/07/16 03:16:27;;;;;;;6.22;3.78;;;;;;;25.11;61.60;98383.59;5019455;28;20029;-60
2022/07/16 03:18:52;;;;;;;6.10;3.80;;;;;;;25.12;60.24;98382.56;5021382;28;20040;-59
2022/07/16 03:21:18;;;;;;;7.53;3.97;;;;;;;25.13;60.44;98379.66;5021426;28;20030;-59
2022/07/16 03:23:43;;;;;;;7.35;3.88;;;;;;;24.92;60.75;98356.47;5001392;28;20025;-62
2022/07/16 03:26:08;;;;;;;6.93;3.83;;;;;;;24.96;63.08;98384.19;5020739;28;20586;-60
2022/07/16 03:28:35;;;;;;;6.63;3.83;;;;;;;24.65;63.90;98354.47;5023361;28;20088;-59
2022/07/16 03:31:00;;;;;;;6.43;3.85;;;;;;;24.93;63.26;98389.97;5019987;28;20013;-59
2022/07/16 03:33:26;;;;;;;6.43;3.75;;;;;;;24.95;63.01;98387.88;5035919;28;20033;-59
2022/07/16 03:35:51;;;;;;;6.47;3.80;;;;;;;24.86;63.45;98368.06;5019745;28;20025;-60
2022/07/16 03:41:00;;;;;;;7.47;4.07;;;;;;;24.81;62.47;98360.03;5020253;28;20175;-59
2022/07/16 03:43:28;;;;;;;7.13;4.20;;;;;;;24.93;62.57;98382.84;5015434;28;20503;-58
2022/07/16 03:45:53;;;;;;;5.90;3.70;;;;;;;24.84;63.00;98391.44;5018735;28;20029;-62
2022/07/16 03:48:19;;;;;;;5.35;3.70;;;;;;;24.77;63.79;98394.28;5021958;28;20026;-59
2022/07/16 03:50:44;;;;;;;5.03;3.35;;;;;;;24.63;63.78;98369.06;5009275;28;20116;-61
2022/07/16 03:53:09;;;;;;;5.75;3.65;;;;;;;24.81;63.16;98407.91;5001946;28;20583;-60
2022/07/16 03:55:35;;;;;;;7.22;3.80;;;;;;;24.82;63.30;98404.97;5043502;28;20033;-59
2022/07/16 03:58:00;;;;;;;5.35;3.20;;;;;;;24.89;63.08;98402.16;5017449;28;20465;-63
2022/07/16 04:00:26;;;;;;;5.15;3.50;;;;;;;24.78;62.97;98411.03;5017531;28;20131;-60
2022/07/16 04:02:51;;;;;;;6.75;3.72;;;;;;;24.84;62.63;98412.72;5019484;28;20018;-61
2022/07/16 04:05:16;;;;;;;5.97;3.47;;;;;;;24.72;63.29;98421.59;5021206;28;20043;-63
2022/07/16 04:07:42;;;;;;;6.25;3.90;;;;;;;24.69;63.99;98416.72;5020820;28;20459;-60
2022/07/16 04:10:07;;;;;;;5.63;3.90;;;;;;;24.61;63.81;98417.16;5020784;28;20029;-60
2022/07/16 04:12:32;;;;;;;6.57;4.00;;;;;;;24.60;64.32;98412.88;5018679;28;20068;-61
2022/07/16 04:14:59;;;;;;;5.82;3.70;;;;;;;24.67;64.23;98418.84;5019344;28;20021;-60
2022/07/16 04:17:24;;;;;;;7.40;3.80;;;;;;;24.77;63.96;98418.22;5025384;28;20080;-59
2022/07/16 04:19:50;;;;;;;7.32;3.60;;;;;;;24.65;63.41;98391.69;5012965;28;20045;-59
2022/07/16 04:22:16;;;;;;;5.63;3.42;;;;;;;24.79;63.35;98420.59;5034158;28;20380;-60
2022/07/16 04:24:42;;;;;;;6.30;4.03;;;;;;;24.89;62.94;98426.09;5018899;28;20468;-59
2022/07/16 04:27:07;;;;;;;7.82;3.83;;;;;;;24.91;63.14;98439.94;5018943;28;20041;-60
2022/07/16 04:29:32;;;;;;;7.45;3.80;;;;;;;24.73;63.04;98412.56;5008796;28;20036;-59
2022/07/16 04:31:58;;;;;;;6.00;3.47;;;;;;;24.88;62.41;98449.22;5019963;28;20384;-59
2022/07/16 04:34:23;;;;;;;5.97;3.45;;;;;;;24.90;61.67;98449.00;5003428;28;20365;-60
2022/07/16 04:36:49;;;;;;;5.90;3.47;;;;;;;24.87;62.50;98434.31;5017801;28;20014;-60
2022/07/16 04:39:15;;;;;;;6.10;3.70;;;;;;;24.89;62.26;98442.03;5016874;28;20112;-59
2022/07/16 04:41:40;;;;;;;6.15;3.63;;;;;;;24.87;61.86;98449.47;5019057;28;20018;-60
2022/07/16 04:44:05;;;;;;;5.07;3.10;;;;;;;24.68;61.95;98452.34;5018850;28;20407;-60
2022/07/16 04:46:31;;;;;;;6.60;3.72;;;;;;;24.73;62.21;98460.41;5037877;28;20033;-60
2022/07/16 04:48:56;;;;;;;6.63;4.00;;;;;;;24.43;62.47;98439.41;5036179;28;20036;-61
2022/07/16 04:51:22;;;;;;;6.65;3.78;;;;;;;24.53;62.18;98471.50;5021365;28;20020;-60
2022/07/16 04:53:47;;;;;;;7.30;3.92;;;;;;;24.55;62.39;98473.91;5016935;28;20068;-60
2022/07/16 04:56:12;;;;;;;5.90;3.55;;;;;;;24.44;62.40;98466.75;4994973;28;20317;-59
2022/07/16 04:58:38;;;;;;;6.78;3.92;;;;;;;24.40;62.17;98470.94;4999352;28;20626;-59
2022/07/16 05:01:03;;;;;;;7.93;4.05;;;;;;;24.22;62.30;98469.28;5018824;28;20464;-59
2022/07/16 05:03:29;;;;;;;6.03;4.22;;;;;;;24.39;62.01;98483.44;5018789;28;20037;-61
2022/07/16 05:05:54;;;;;;;7.60;4.40;;;;;;;24.45;61.60;98479.03;5020225;28;20316;-61
2022/07/16 05:08:20;;;;;;;6.32;4.20;;;;;;;24.34;61.79;98478.03;5024553;28;20030;-60
2022/07/16 05:10:45;;;;;;;8.00;4.45;;;;;;;24.32;61.82;98483.56;5021378;28;20037;-59
2022/07/16 05:13:10;;;;;;;7.50;4.07;;;;;;;24.35;61.28;98485.75;5022064;28;20120;-61
2022/07/16 05:15:36;;;;;;;8.15;4.07;;;;;;;24.47;60.99;98487.56;5025347;28;20135;-60
2022/07/16 05:18:02;;;;;;;6.65;3.70;;;;;;;24.37;61.70;98496.97;5020054;28;20087;-60
2022/07/16 05:20:28;;;;;;;6.57;4.15;;;;;;;24.34;62.13;98493.97;5007989;28;20052;-58
2022/07/16 05:22:54;;;;;;;5.45;4.00;;;;;;;24.16;61.67;98455.91;5020686;28;20145;-59
2022/07/16 05:25:20;;;;;;;7.07;4.25;;;;;;;24.49;61.93;98496.09;5030002;28;20056;-60
2022/07/16 05:27:45;;;;;;;7.65;4.57;;;;;;;24.55;61.34;98495.16;5021902;28;20017;-60
2022/07/16 05:30:11;;;;;;;7.93;4.38;;;;;;;24.50;61.65;98493.22;5006221;28;20022;-61
2022/07/16 05:32:37;;;;;;;6.07;4.13;;;;;;;24.24;62.80;98488.44;5021396;28;20120;-59
2022/07/16 05:35:03;;;;;;;7.97;4.32;;;;;;;24.36;62.95;98489.22;5020038;28;20033;-59
2022/07/16 05:37:28;;;;;;;7.93;4.45;;;;;;;24.44;61.95;98496.81;5017677;28;20017;-58
2022/07/16 05:39:54;;;;;;;7.85;4.63;;;;;;;24.46;62.19;98496.56;5017316;28;20679;-59
2022/07/16 05:42:19;;;;;;;6.40;4.43;;;;;;;24.49;61.97;98491.59;5022362;28;20030;-60
2022/07/16 05:44:45;;;;;;;7.05;4.32;;;;;;;24.55;61.65;98501.31;5017139;28;20021;-59
2022/07/16 05:47:10;;;;;;;6.22;4.20;;;;;;;24.60;61.78;98507.75;5021953;28;20030;-58
2022/07/16 05:49:35;;;;;;;9.10;4.93;;;;;;;24.65;61.65;98505.19;5023549;28;20104;-60
2022/07/16 05:52:01;;;;;;;7.35;4.40;;;;;;;24.69;61.24;98512.44;5026217;28;20897;-60
2022/07/16 05:54:26;;;;;;;9.20;4.13;;;;;;;24.62;61.84;98500.34;5021590;28;20030;-59
2022/07/16 05:56:52;;;;;;;8.45;4.68;;;;;;;24.61;62.59;98504.06;5014055;28;20022;-59
2022/07/16 05:59:17;;;;;;;6.85;4.10;;;;;;;24.61;61.85;98509.38;5020622;28;20029;-59
2022/07/16 06:01:42;;;;;;;8.77;4.20;;;;;;;24.48;61.94;98508.59;5018389;28;20029;-59
2022/07/16 06:04:08;;;;;;;6.25;4.40;;;;;;;24.26;62.61;98492.50;5021203;28;20067;-58
2022/07/16 06:06:33;;;;;;;6.40;4.15;;;;;;;24.49;63.02;98523.47;5023346;28;20033;-58
2022/07/16 06:08:59;;;;;;;6.75;4.75;;;;;;;24.59;62.37;98517.59;5019404;28;20354;-59
2022/07/16 06:11:24;;;;;;;7.07;4.65;;;;;;;24.30;61.61;98477.69;5038807;28;20033;-59
2022/07/16 06:13:50;;;;;;;6.70;4.38;;;;;;;24.61;61.73;98510.19;5019314;28;20041;-59
2022/07/16 06:16:15;;;;;;;6.70;4.35;;;;;;;24.74;61.49;98514.38;5027373;28;20040;-58
2022/07/16 06:18:41;;;;;;;7.65;4.78;;;;;;;24.68;61.38;98521.47;5024315;28;20457;-60
2022/07/16 06:21:07;;;;;;;7.88;4.53;;;;;;;24.84;60.80;98516.41;5020801;28;20030;-59
2022/07/16 06:23:32;;;;;;;8.52;4.72;;;;;;;24.93;60.60;98513.13;5021421;28;20407;-59
2022/07/16 06:25:58;;;;;;;8.43;4.25;;;;;;;24.96;61.35;98522.47;5020666;28;20885;-59
2022/07/16 06:28:23;;;;;;;6.97;4.57;;;;;;;24.84;62.07;98497.78;5020910;28;20059;-59
2022/07/16 06:30:48;;;;;;;7.25;4.60;;;;;;;25.00;61.40;98522.81;5027758;28;20025;-61
2022/07/16 06:33:14;;;;;;;9.20;5.03;;;;;;;25.00;61.40;98520.94;5020416;28;20112;-59
2022/07/16 06:35:39;;;;;;;5.93;4.25;;;;;;;24.79;60.54;98487.06;5021290;28;20029;-59
2022/07/16 06:38:05;;;;;;;9.57;4.80;;;;;;;24.94;62.75;98517.38;5020171;28;20032;-60
2022/07/16 06:40:30;;;;;;;7.00;4.32;;;;;;;24.93;61.95;98520.28;5020554;28;20085;-58
2022/07/16 06:42:56;;;;;;;6.85;4.65;;;;;;;24.96;60.04;98516.34;5026558;28;20029;-59
2022/07/16 06:45:21;;;;;;;6.40;4.55;;;;;;;25.06;60.94;98522.66;5004117;28;20033;-59
2022/07/16 06:47:47;;;;;;;7.22;4.22;;;;;;;25.05;61.05;98520.22;5016849;28;20838;-58
2022/07/16 06:50:12;;;;;;;7.35;4.60;;;;;;;25.12;62.68;98518.22;5017194;28;20033;-59
2022/07/16 06:52:38;;;;;;;7.65;4.70;;;;;;;24.92;61.10;98495.56;5020155;28;20071;-60
2022/07/16 06:55:04;;;;;;;6.75;4.40;;;;;;;25.11;62.60;98517.38;5017635;28;20455;-59
2022/07/16 06:57:29;;;;;;;7.85;4.50;;;;;;;25.13;62.39;98520.66;5019062;28;20349;-59
2022/07/16 06:59:55;;;;;;;7.00;4.40;;;;;;;25.07;61.73;98526.13;5021852;28;20025;-59
2022/07/16 07:02:20;;;;;;;7.25;4.68;;;;;;;24.96;62.16;98517.16;5017216;28;20258;-60
2022/07/16 07:04:45;;;;;;;7.13;4.22;;;;;;;25.07;62.42;98520.78;5023278;28;20112;-59
2022/07/16 07:07:11;;;;;;;7.55;4.30;;;;;;;25.06;62.85;98500.53;5020764;28;20315;-59
2022/07/16 07:09:37;;;;;;;7.07;4.32;;;;;;;25.14;63.12;98524.09;5019770;28;20057;-59
2022/07/16 07:12:03;;;;;;;7.47;4.60;;;;;;;25.06;63.16;98522.66;5025464;28;20151;-59
2022/07/16 07:14:28;;;;;;;7.18;3.95;;;;;;;25.12;61.57;98521.69;5016415;28;20096;-58
2022/07/16 07:16:53;;;;;;;6.07;3.83;;;;;;;24.90;59.64;98480.91;5008022;28;20120;-59
2022/07/16 07:19:19;;;;;;;6.85;4.07;;;;;;;25.16;59.34;98521.19;5021677;28;20432;-59
2022/07/16 07:21:44;;;;;;;8.50;4.07;;;;;;;25.07;57.38;98495.00;5009307;28;20025;-59
2022/07/16 07:24:09;;;;;;;7.82;3.75;;;;;;;25.30;55.04;98527.84;5003925;28;20490;-59
2022/07/16 07:26:35;;;;;;;5.68;3.63;;;;;;;25.34;54.29;98518.31;5020081;28;20037;-62
2022/07/16 07:29:00;;;;;;;5.93;3.67;;;;;;;25.45;54.09;98520.09;5027736;28;20018;-60
2022/07/16 07:31:26;;;;;;;6.45;3.53;;;;;;;25.45;54.33;98520.09;5017502;28;20113;-59
2022/07/16 07:33:51;;;;;;;7.03;3.13;;;;;;;25.54;53.06;98520.47;5019753;28;20293;-58
2022/07/16 07:36:16;;;;;;;5.97;3.53;;;;;;;25.57;53.39;98519.16;5021607;28;20041;-58
2022/07/16 07:38:42;;;;;;;7.03;3.58;;;;;;;25.59;53.51;98514.41;5020779;28;20045;-58
2022/07/16 07:41:07;;;;;;;7.47;3.40;;;;;;;25.63;53.25;98524.34;5024640;28;20033;-58
2022/07/16 07:43:33;;;;;;;5.88;3.55;;;;;;;25.45;52.01;98482.03;5019209;28;20563;-58
2022/07/16 07:45:58;;;;;;;5.28;3.40;;;;;;;25.72;51.66;98522.06;5006722;28;20018;-60
2022/07/16 07:48:23;;;;;;;6.95;3.33;;;;;;;25.84;50.56;98521.94;4994753;28;20033;-59
2022/07/16 07:50:49;;;;;;;6.05;3.83;;;;;;;26.37;49.08;98514.34;5021271;28;20013;-58
2022/07/16 07:53:14;;;;;;;5.22;3.50;;;;;;;26.88;47.99;98509.53;5020027;28;20387;-59
2022/07/16 07:55:40;;;;;;;5.70;3.50;;;;;;;27.49;47.27;98513.75;5037560;28;20372;-58
2022/07/16 07:58:05;;;;;;;6.90;3.40;;;;;;;27.62;44.80;98478.59;5021267;28;20128;-59
2022/07/16 08:00:31;;;;;;;6.32;3.33;;;;;;;28.22;43.88;98513.88;5023246;28;20326;-61
2022/07/16 08:02:56;;;;;;;5.10;3.10;;;;;;;28.31;42.85;98482.91;5017918;28;20105;-58
2022/07/16 08:05:22;;;;;;;7.43;3.28;;;;;;;28.66;42.73;98515.31;5020039;28;20125;-60
2022/07/16 08:07:48;;;;;;;6.53;3.10;;;;;;;28.95;42.33;98505.75;5018239;28;20400;-60
2022/07/16 08:10:14;;;;;;;5.97;3.25;;;;;;;29.06;41.79;98508.41;5001413;28;20033;-59
2022/07/16 08:12:39;;;;;;;6.35;3.20;;;;;;;29.24;41.04;98515.13;5000315;28;20084;-60
2022/07/16 08:15:06;;;;;;;6.38;2.90;;;;;;;29.50;40.29;98508.66;5003492;28;20025;-59
2022/07/16 08:17:31;;;;;;;5.70;3.22;;;;;;;29.56;40.38;98514.81;5022179;28;20754;-58
2022/07/16 08:19:56;;;;;;;7.38;3.22;;;;;;;29.29;40.56;98505.19;5002577;28;20148;-58
2022/07/16 08:22:22;;;;;;;7.80;3.38;;;;;;;29.62;40.60;98505.66;5004339;28;20372;-58
2022/07/16 08:27:31;;;;;;;7.25;3.60;;;;;;;29.82;39.33;98504.03;5015875;28;20053;-59
2022/07/16 08:29:57;;;;;;;6.53;3.33;;;;;;;30.03;39.13;98505.56;5003140;28;20021;-59
2022/07/16 08:32:22;;;;;;;5.28;3.15;;;;;;;30.21;38.79;98485.38;5018511;28;20751;-62
2022/07/16 08:34:48;;;;;;;5.82;3.28;;;;;;;30.32;38.35;98510.25;5002623;28;20029;-59
2022/07/16 08:37:13;;;;;;;7.72;3.65;;;;;;;30.34;39.05;98507.31;5002429;28;20551;-60
2022/07/16 08:39:43;;;;;;;6.13;3.30;;;;;;;30.66;37.98;98501.47;5020133;28;20021;-58
2022/07/16 08:42:10;;;;;;;7.70;3.50;;;;;;;31.10;37.71;98497.94;5022989;28;20416;-60
2022/07/16 08:44:39;;;;;;;6.30;3.15;;;;;;;31.24;36.97;98485.44;4995904;28;20397;-60
2022/07/16 08:47:04;;;;;;;6.45;3.25;;;;;;;31.52;36.80;98493.00;5024629;28;20018;-59
2022/07/16 08:49:31;;;;;;;5.32;3.28;;;;;;;31.57;36.06;98472.25;5002071;28;20026;-60
2022/07/16 08:51:59;;;;;;;7.15;3.45;;;;;;;31.80;35.97;98462.59;5056295;28;20365;-60
2022/07/16 08:54:28;;;;;;;5.78;3.30;;;;;;;32.19;35.25;98477.69;5020840;28;20555;-58
2022/07/16 08:56:53;;;;;;;5.63;3.30;;;;;;;32.16;35.85;98483.66;5001205;28;20029;-59
2022/07/16 08:59:19;;;;;;;9.50;3.22;;;;;;;32.20;35.16;98483.88;5005607;28;20032;-60
2022/07/16 09:01:44;;;;;;;4.97;3.15;;;;;;;32.02;35.77;98482.75;5019988;28;20694;-59
2022/07/16 09:04:10;;;;;;;6.15;3.30;;;;;;;32.29;35.19;98476.75;5018311;28;20028;-59
2022/07/16 09:06:35;;;;;;;5.60;3.42;;;;;;;32.52;34.73;98476.97;5006156;28;20550;-60
2022/07/16 09:09:00;;;;;;;5.80;3.35;;;;;;;32.82;34.69;98474.91;5018750;28;20028;-58
2022/07/16 09:11:28;;;;;;;5.30;3.13;;;;;;;32.82;34.70;98481.09;5024972;28;20025;-62
2022/07/16 09:14:08;;;;;;;7.25;3.50;;;;;;;32.58;34.83;98475.81;5007418;28;20106;-60
2022/07/16 09:16:41;;;;;;;6.25;3.50;;;;;;;32.91;33.43;98451.59;5017207;28;20084;-58
2022/07/16 09:19:13;;;;;;;6.18;3.28;;;;;;;32.77;33.63;98454.25;5038599;28;20021;-60
2022/07/16 09:22:06;;;;;;;5.95;3.45;;;;;;;33.39;33.41;98466.66;5016707;28;20037;-61
2022/07/16 09:24:45;;;;;;;5.97;3.60;;;;;;;33.51;33.48;98475.88;5036986;28;20101;-58
2022/07/16 09:27:12;;;;;;;;;;;;;;;33.61;33.31;98482.16;5022666;28;20037;-60
2022/07/16 09:29:58;;;;;;;5.75;3.53;;;;;;;33.56;32.89;98464.19;5022299;28;19924;-60
2022/07/16 09:32:30;;;;;;;6.70;3.50;;;;;;;33.31;32.83;98454.69;5015099;28;20021;-59
2022/07/16 09:35:13;;;;;;;8.07;3.63;;;;;;;33.44;33.10;98471.94;5005158;28;20022;-59
2022/07/16 09:37:54;;;;;;;5.45;3.38;;;;;;;33.53;33.94;98470.16;5001400;28;20030;-60
2022/07/16 09:40:32;;;;;;;7.32;3.55;;;;;;;33.45;33.31;98468.97;5016233;28;20502;-60
2022/07/16 09:42:59;;;;;;;6.40;3.60;;;;;;;33.31;33.49;98463.59;5022505;28;20108;-59
2022/07/16 09:45:24;;;;;;;5.78;3.25;;;;;;;33.29;33.26;98464.97;5021243;28;20033;-59
2022/07/16 09:47:50;;;;;;;7.15;3.90;;;;;;;33.67;32.56;98464.81;5018351;28;20018;-60
2022/07/16 09:50:15;;;;;;;5.30;3.67;;;;;;;33.50;31.87;98431.16;5022314;28;20034;-59
2022/07/16 09:52:40;;;;;;;5.68;3.42;;;;;;;33.46;32.97;98458.97;5020666;28;20025;-59
2022/07/16 09:55:07;;;;;;;7.50;3.10;;;;;;;33.29;33.42;98446.09;5056797;28;20021;-59
2022/07/16 09:57:33;;;;;;;6.85;3.30;;;;;;;33.26;34.14;98450.19;5022738;28;20021;-58
2022/07/16 09:59:59;;;;;;;6.57;3.72;;;;;;;33.15;33.86;98451.50;5023427;28;20017;-60
2022/07/16 10:02:25;;;;;;;6.60;3.45;;;;;;;32.50;34.58;98422.66;5005444;28;20135;-59
2022/07/16 10:04:51;;;;;;;6.47;3.47;;;;;;;32.38;35.45;98450.81;5036714;28;20029;-62
2022/07/16 10:07:17;;;;;;;8.00;3.80;;;;;;;32.33;35.20;98450.88;5021395;28;20033;-60
2022/07/16 10:09:43;;;;;;;5.38;3.40;;;;;;;31.90;35.58;98442.81;5018327;28;20112;-60
2022/07/16 10:12:14;;;;;;;6.55;3.55;;;;;;;31.23;37.27;98434.72;5007572;28;20032;-59
2022/07/16 10:14:42;;;;;;;5.35;3.45;;;;;;;31.13;37.50;98446.38;5010540;28;20028;-61
2022/07/16 10:17:14;;;;;;;6.18;3.78;;;;;;;31.08;36.76;98451.00;5015129;28;20029;-60
2022/07/16 10:19:39;;;;;;;6.05;3.60;;;;;;;30.93;37.27;98441.19;5005115;28;20049;-61
2022/07/16 10:22:40;;;;;;;7.60;4.25;;;;;;;30.67;37.69;98441.38;5026306;28;20097;-59
2022/07/16 10:25:32;;;;;;;5.72;3.67;;;;;;;30.44;38.00;98437.53;5012174;28;20053;-58
2022/07/16 10:27:58;;;;;;;7.45;3.67;;;;;;;30.55;38.46;98446.31;5020153;28;20029;-60
2022/07/16 10:30:29;;;;;;;5.43;3.85;;;;;;;30.65;38.92;98435.50;5022275;28;20064;-59
2022/07/16 10:33:07;;;;;;;5.25;3.50;;;;;;;30.56;38.45;98431.81;5022115;28;20025;-59
2022/07/16 10:35:34;;;;;;;8.98;4.10;;;;;;;30.45;38.82;98410.44;5021171;28;20099;-59
2022/07/16 10:38:06;;;;;;;6.35;3.55;;;;;;;30.49;38.88;98415.25;5024397;28;20020;-58
2022/07/16 10:40:31;;;;;;;6.88;4.05;;;;;;;30.62;37.34;98404.66;5016189;28;20057;-57
2022/07/16 10:43:20;;;;;;;6.57;3.95;;;;;;;30.64;37.42;98397.13;5021431;28;21011;-59
2022/07/16 10:45:56;;;;;;;5.05;3.55;;;;;;;30.73;38.20;98431.41;5000484;28;20235;-59
2022/07/16 10:48:25;;;;;;;7.28;3.40;;;;;;;30.83;38.29;98426.75;5018954;28;20531;-59
2022/07/16 10:51:10;;;;;;;5.53;3.60;;;;;;;30.77;37.72;98425.19;5021588;28;20028;-59
2022/07/16 10:54:12;;;;;;;5.55;3.45;;;;;;;30.72;38.25;98417.19;5021912;28;20045;-57
2022/07/16 10:56:50;;;;;;;5.82;3.35;;;;;;;30.62;38.23;98415.38;5021468;28;20033;-58
2022/07/16 10:59:22;;;;;;;5.00;3.50;;;;;;;30.64;38.39;98407.84;5021765;28;20077;-59
2022/07/16 11:01:51;;;;;;;5.90;3.88;;;;;;;30.51;38.36;98383.56;5021557;28;20146;-58
2022/07/16 11:04:34;;;;;;;6.07;3.80;;;;;;;30.65;37.84;98411.34;5027211;28;20169;-58
2022/07/16 11:07:02;;;;;;;6.03;3.72;;;;;;;30.38;38.11;98372.41;5020027;28;20030;-59
2022/07/16 11:09:33;;;;;;;7.03;3.72;;;;;;;30.59;38.13;98405.22;5020926;28;20024;-60
2022/07/16 11:12:09;;;;;;;6.93;3.90;;;;;;;30.87;37.65;98416.25;5018240;28;20083;-60
2022/07/16 11:14:35;;;;;;;5.72;3.45;;;;;;;30.89;38.56;98402.56;5014006;28;20855;-58
2022/07/16 11:17:01;;;;;;;5.60;3.75;;;;;;;30.78;37.47;98404.53;5017538;28;20026;-60
2022/07/16 11:19:26;;;;;;;7.45;3.85;;;;;;;30.69;41.08;98404.34;5016867;28;20025;-59
2022/07/16 11:21:59;;;;;;;6.07;4.10;;;;;;;30.49;41.93;98401.84;5014083;28;20106;-57
2022/07/16 11:24:26;;;;;;;9.13;4.00;;;;;;;30.45;41.94;98402.38;5018460;28;20705;-59
2022/07/16 11:26:52;;;;;;;5.97;4.07;;;;;;;30.60;41.50;98403.34;5003141;28;20343;-60
2022/07/16 11:29:21;;;;;;;6.18;4.00;;;;;;;30.56;40.77;98399.63;5018591;28;20472;-58
2022/07/16 11:31:47;;;;;;;5.13;3.53;;;;;;;30.52;39.40;98396.72;5024669;28;20104;-59
2022/07/16 11:34:13;;;;;;;6.97;3.97;;;;;;;30.46;41.20;98398.59;4998745;28;20060;-58
2022/07/16 11:36:41;;;;;;;5.57;3.25;;;;;;;30.22;42.56;98392.34;5022288;28;20029;-57
2022/07/16 11:39:09;;;;;;;7.20;3.70;;;;;;;30.36;42.32;98390.66;5019855;28;20045;-58
2022/07/16 11:41:40;;;;;;;5.65;3.67;;;;;;;30.44;42.94;98390.03;5021664;28;20098;-57
2022/07/16 11:44:14;;;;;;;6.78;3.60;;;;;;;30.47;43.56;98386.81;5022162;28;20028;-58